Quantico, Maryland
Current Conditions -  °F | °C
As of 1:10 PM on Thursday 23 Oct 2014 (Local Time) from KSBY Reporting Station
Overcast Overcast  
Wind Chill: 61°   Ceiling: 3100
Heat Index: 61°   Visibility: 10mi
Dew Point: 46°   Wind: 20mph
Humidity: 59%   Direction: 320°NW
Pressure: 29.8"   Gusts: 24mph
Location:  38.37°N, 75.74°W
Report Text: KSBY 231710Z 32017G21KT 10SM OVC031 16/08 A2980 RMK AO2
Loading
Personal Weather Stations






























Interactive Weather Map
Tropical Storm Tracking
New forecast layout! Learn more

10-Day Weather Forecast

Advertisements
Track Severe Weather on mobile